createdAt,value
2023-05-23T00:00:25.307Z,21.06
2023-05-23T00:02:57.150Z,20.98
2023-05-23T00:05:33.134Z,20.92
2023-05-23T00:08:12.639Z,20.74
2023-05-23T00:10:43.759Z,21.05
2023-05-23T00:16:26.639Z,20.30
2023-05-23T00:19:20.148Z,20.26
2023-05-23T00:21:54.537Z,20.53
2023-05-23T00:25:07.386Z,20.82
2023-05-23T00:31:32.156Z,21.65
2023-05-23T00:34:06.585Z,21.10
2023-05-23T00:36:40.134Z,20.81
2023-05-23T00:39:21.331Z,20.52
2023-05-23T00:42:42.177Z,20.27
2023-05-23T00:49:30.811Z,20.31
2023-05-23T00:52:15.219Z,19.63
2023-05-23T00:54:48.562Z,19.75
2023-05-23T01:01:26.938Z,20.10
2023-05-23T01:07:07.798Z,19.43
2023-05-23T01:09:36.070Z,19.35
2023-05-23T01:13:31.009Z,19.31
2023-05-23T01:16:36.135Z,19.26
2023-05-23T01:20:02.806Z,18.74
2023-05-23T01:23:07.816Z,18.82
2023-05-23T01:26:23.098Z,18.74
2023-05-23T01:29:12.367Z,18.57
2023-05-23T01:31:50.569Z,19.02
2023-05-23T01:37:28.339Z,19.73
2023-05-23T01:43:30.447Z,19.63
2023-05-23T01:46:35.065Z,19.45
2023-05-23T01:49:27.451Z,19.54
2023-05-23T01:52:13.543Z,19.54
2023-05-23T01:54:49.917Z,19.63
2023-05-23T01:57:54.134Z,19.72
2023-05-23T02:00:27.979Z,20.25
2023-05-23T02:02:55.631Z,20.60
2023-05-23T02:05:23.395Z,20.52
2023-05-23T02:07:50.772Z,20.63
2023-05-23T02:10:19.399Z,20.79
2023-05-23T02:12:47.422Z,20.87
2023-05-23T02:15:17.777Z,21.30
2023-05-23T02:17:45.558Z,21.40
2023-05-23T02:20:19.234Z,21.24
2023-05-23T02:25:35.498Z,21.54
2023-05-23T02:28:27.117Z,21.59
2023-05-23T02:30:57.763Z,21.19
2023-05-23T02:33:25.895Z,20.99
2023-05-23T02:35:56.516Z,21.07
2023-05-23T02:41:16.245Z,21.52
2023-05-23T02:47:24.818Z,21.25
2023-05-23T02:50:15.143Z,20.82
2023-05-23T02:52:57.224Z,20.31
2023-05-23T02:55:26.302Z,20.53
2023-05-23T02:57:59.033Z,20.19
2023-05-23T03:00:34.258Z,19.93
2023-05-23T03:03:05.270Z,20.55
2023-05-23T03:06:20.031Z,20.79
2023-05-23T03:08:56.799Z,20.89
2023-05-23T03:11:40.628Z,21.49
2023-05-23T03:14:14.010Z,21.22
2023-05-23T03:16:41.448Z,20.87
2023-05-23T03:19:10.791Z,20.56
2023-05-23T03:21:38.884Z,20.32
2023-05-23T03:24:06.913Z,20.52
2023-05-23T03:26:39.009Z,19.86
2023-05-23T03:29:06.776Z,19.53
2023-05-23T03:32:14.977Z,20.17
2023-05-23T03:35:36.138Z,20.36
2023-05-23T03:38:03.854Z,19.61
2023-05-23T03:40:31.233Z,19.24
2023-05-23T03:43:07.189Z,19.02
2023-05-23T03:45:35.033Z,19.35
2023-05-23T03:48:03.000Z,19.29
2023-05-23T03:50:30.316Z,19.65
2023-05-23T03:52:57.493Z,20.17
2023-05-23T03:55:25.646Z,19.68
2023-05-23T03:57:53.040Z,19.66
2023-05-23T04:00:20.315Z,18.80
2023-05-23T04:02:47.739Z,19.23
2023-05-23T04:05:15.060Z,18.63
2023-05-23T04:07:43.234Z,18.94
2023-05-23T04:10:11.075Z,19.59
2023-05-23T04:12:41.534Z,19.64
2023-05-23T04:15:10.118Z,20.73
2023-05-23T04:17:39.069Z,21.34
2023-05-23T04:20:10.922Z,21.16
2023-05-23T04:22:38.388Z,20.64
2023-05-23T04:25:06.885Z,20.08
2023-05-23T04:27:40.376Z,19.92
2023-05-23T04:30:11.945Z,20.09
2023-05-23T04:32:39.078Z,20.17
2023-05-23T04:35:07.054Z,20.18
2023-05-23T04:37:35.295Z,19.83
2023-05-23T04:40:03.770Z,19.40
2023-05-23T04:42:30.981Z,19.32
2023-05-23T04:44:58.300Z,19.65
2023-05-23T04:47:28.289Z,20.19
2023-05-23T04:49:58.543Z,19.97
2023-05-23T04:52:27.532Z,20.07
2023-05-23T04:55:27.220Z,20.43
2023-05-23T04:57:54.711Z,20.44
2023-05-23T05:00:21.957Z,20.33
2023-05-23T05:02:52.231Z,20.75
2023-05-23T05:05:19.476Z,21.05
2023-05-23T05:07:46.666Z,20.25
2023-05-23T05:10:17.467Z,20.41
2023-05-23T05:12:54.235Z,20.37
2023-05-23T05:15:21.496Z,20.70
2023-05-23T05:17:49.980Z,20.98
2023-05-23T05:20:17.642Z,20.92
2023-05-23T05:22:55.204Z,21.02
2023-05-23T05:25:22.479Z,21.16
2023-05-23T05:27:49.981Z,20.99
2023-05-23T05:30:17.337Z,20.80
2023-05-23T05:32:46.348Z,20.76
2023-05-23T05:35:14.259Z,20.96
2023-05-23T05:37:43.623Z,20.96
2023-05-23T05:40:21.504Z,20.99
2023-05-23T05:42:48.648Z,21.72
2023-05-23T05:45:19.208Z,21.20
2023-05-23T05:47:49.794Z,21.70
2023-05-23T05:50:17.117Z,21.61
2023-05-23T05:52:44.355Z,21.46
2023-05-23T05:55:15.057Z,21.98
2023-05-23T05:57:42.535Z,21.95
2023-05-23T06:00:19.268Z,21.83
2023-05-23T06:02:57.604Z,22.00
2023-05-23T06:05:26.802Z,21.59
2023-05-23T06:07:56.524Z,21.36
2023-05-23T06:10:24.648Z,20.97
2023-05-23T06:12:51.844Z,20.60
2023-05-23T06:15:19.652Z,20.76
2023-05-23T06:17:47.650Z,20.74
2023-05-23T06:20:14.839Z,20.74
2023-05-23T06:22:45.172Z,21.26
2023-05-23T06:25:12.492Z,21.65
2023-05-23T06:27:40.549Z,21.33
2023-05-23T06:30:08.918Z,21.59
2023-05-23T06:32:40.862Z,21.41
2023-05-23T06:35:08.755Z,21.27
2023-05-23T06:37:43.609Z,21.38
2023-05-23T06:40:14.774Z,21.70
2023-05-23T06:42:42.442Z,22.85
2023-05-23T06:45:16.855Z,23.20
2023-05-23T06:47:45.635Z,21.34
2023-05-23T06:50:13.152Z,21.45
2023-05-23T06:52:42.672Z,21.51
2023-05-23T06:55:10.391Z,21.53
2023-05-23T06:57:52.274Z,21.49
2023-05-23T07:00:26.409Z,21.58
2023-05-23T07:02:57.395Z,21.65
2023-05-23T07:05:24.766Z,21.48
2023-05-23T07:07:55.392Z,21.41
2023-05-23T07:10:23.091Z,22.04
2023-05-23T07:12:50.914Z,22.42
2023-05-23T07:15:18.143Z,22.41
2023-05-23T07:17:45.489Z,22.81
2023-05-23T07:20:12.870Z,23.09
2023-05-23T07:22:43.154Z,23.48
2023-05-23T07:25:10.845Z,23.56
2023-05-23T07:27:38.813Z,24.63
2023-05-23T07:30:09.532Z,24.01
2023-05-23T07:32:37.158Z,24.36
2023-05-23T07:35:06.299Z,24.62
2023-05-23T07:37:33.976Z,23.86
2023-05-23T07:40:01.748Z,23.70
2023-05-23T07:42:28.841Z,24.61
2023-05-23T07:44:59.613Z,24.36
2023-05-23T07:47:28.218Z,24.08
2023-05-23T07:49:55.558Z,23.83
2023-05-23T07:52:22.721Z,22.61
2023-05-23T07:54:49.989Z,22.76
2023-05-23T07:57:19.740Z,23.96
2023-05-23T07:59:47.369Z,25.48
2023-05-23T08:02:14.752Z,25.12
2023-05-23T08:04:57.109Z,25.02
2023-05-23T08:07:55.328Z,25.17
2023-05-23T08:10:28.256Z,26.07
2023-05-23T08:13:20.151Z,24.81
2023-05-23T08:15:47.585Z,25.69
2023-05-23T08:18:15.092Z,25.58
2023-05-23T08:20:45.459Z,25.35
2023-05-23T08:23:21.667Z,25.06
2023-05-23T08:25:49.059Z,24.84
2023-05-23T08:28:16.237Z,25.51
2023-05-23T08:30:46.913Z,25.37
2023-05-23T08:33:21.944Z,26.21
2023-05-23T08:35:49.319Z,25.89
2023-05-23T08:38:22.807Z,25.94
2023-05-23T08:40:59.704Z,26.85
2023-05-23T08:43:35.744Z,26.11
2023-05-23T08:46:05.289Z,25.17
2023-05-23T08:48:37.722Z,26.16
2023-05-23T08:51:09.949Z,25.98
2023-05-23T08:53:38.725Z,25.43
2023-05-23T08:56:06.913Z,25.54
2023-05-23T08:58:47.835Z,25.19
2023-05-23T09:01:18.609Z,27.63
2023-05-23T09:03:46.016Z,26.43
2023-05-23T09:06:13.284Z,26.78
2023-05-23T09:08:40.499Z,28.30
2023-05-23T09:11:08.837Z,28.10
2023-05-23T09:13:35.979Z,26.62
2023-05-23T09:16:06.243Z,27.05
2023-05-23T09:18:44.916Z,27.86
2023-05-23T09:21:13.545Z,27.81
2023-05-23T09:23:41.841Z,28.47
2023-05-23T09:26:13.432Z,27.52
2023-05-23T09:28:48.798Z,27.95
2023-05-23T09:31:16.277Z,27.42
2023-05-23T09:33:52.838Z,28.08
2023-05-23T09:36:21.163Z,28.19
2023-05-23T09:39:15.439Z,29.68
2023-05-23T09:41:48.401Z,28.78
2023-05-23T09:44:22.509Z,29.30
2023-05-23T09:46:56.693Z,28.40
2023-05-23T09:49:32.325Z,28.47
2023-05-23T09:52:02.455Z,27.98
2023-05-23T09:54:30.298Z,27.47
2023-05-23T09:57:02.786Z,27.80
2023-05-23T09:59:35.137Z,28.41
2023-05-23T10:02:19.908Z,28.89
2023-05-23T10:04:49.883Z,28.81
2023-05-23T10:07:23.411Z,28.86
2023-05-23T10:10:11.418Z,30.57
2023-05-23T10:12:54.642Z,28.02
2023-05-23T10:15:26.247Z,30.35
2023-05-23T10:18:09.584Z,30.89
2023-05-23T10:20:39.443Z,28.95
2023-05-23T10:23:22.423Z,28.60
2023-05-23T10:25:50.633Z,29.00
2023-05-23T10:28:18.392Z,29.30
2023-05-23T10:30:53.689Z,30.14
2023-05-23T10:33:22.593Z,30.65
2023-05-23T10:36:31.080Z,28.20
2023-05-23T10:39:36.815Z,29.41
2023-05-23T10:43:04.858Z,29.89
2023-05-23T10:45:42.799Z,29.75
2023-05-23T10:48:28.419Z,30.01
2023-05-23T10:51:12.838Z,29.88
2023-05-23T10:53:53.320Z,29.80
2023-05-23T10:56:31.782Z,28.29
2023-05-23T10:58:58.875Z,27.52
2023-05-23T11:01:39.177Z,29.03
2023-05-23T11:04:07.708Z,27.81
2023-05-23T11:07:05.142Z,28.89
2023-05-23T11:10:07.378Z,28.64
2023-05-23T11:12:52.720Z,30.00
2023-05-23T11:15:21.066Z,29.66
2023-05-23T11:17:57.293Z,29.16
2023-05-23T11:20:31.255Z,29.02
2023-05-23T11:23:10.045Z,29.30
2023-05-23T11:25:53.757Z,28.11
2023-05-23T11:28:24.364Z,30.04
2023-05-23T11:30:52.576Z,31.81
2023-05-23T11:33:21.115Z,28.69
2023-05-23T11:35:51.783Z,29.40
2023-05-23T11:38:28.323Z,31.30
2023-05-23T11:40:55.836Z,28.99
2023-05-23T11:43:36.219Z,29.61
2023-05-23T11:46:09.676Z,28.29
2023-05-23T11:48:36.814Z,26.24
2023-05-23T11:51:04.956Z,27.15
2023-05-23T11:53:32.211Z,26.38
2023-05-23T11:56:02.483Z,26.55
2023-05-23T11:58:34.980Z,25.39
2023-05-23T12:01:10.276Z,26.70
2023-05-23T12:03:54.234Z,27.35
2023-05-23T12:06:25.035Z,28.28
2023-05-23T12:08:53.476Z,27.79
2023-05-23T12:11:22.800Z,27.19
2023-05-23T12:13:53.020Z,26.93
2023-05-23T12:16:21.159Z,27.06
2023-05-23T12:18:48.831Z,27.08
2023-05-23T12:21:16.120Z,27.36
2023-05-23T12:23:44.560Z,27.20
2023-05-23T12:26:11.718Z,28.07
2023-05-23T12:28:46.708Z,27.73
2023-05-23T12:31:22.717Z,28.52
2023-05-23T12:33:53.975Z,28.04
2023-05-23T12:36:32.356Z,27.09
2023-05-23T12:39:04.897Z,28.05
2023-05-23T12:41:33.893Z,27.91
2023-05-23T12:44:02.555Z,28.28
2023-05-23T12:46:29.830Z,28.49
2023-05-23T12:48:57.254Z,27.29
2023-05-23T12:51:24.376Z,26.93
2023-05-23T12:53:53.908Z,25.85
2023-05-23T12:56:22.528Z,27.07
2023-05-23T12:58:55.845Z,27.75
2023-05-23T13:01:23.787Z,28.07
2023-05-23T13:03:51.213Z,27.75
2023-05-23T13:06:19.047Z,26.77
2023-05-23T13:08:46.944Z,27.00
2023-05-23T13:11:14.429Z,26.67
2023-05-23T13:13:44.499Z,25.25
2023-05-23T13:16:26.485Z,27.16
2023-05-23T13:19:09.261Z,26.14
2023-05-23T13:21:37.012Z,25.46
2023-05-23T13:24:04.606Z,26.22
2023-05-23T13:26:37.657Z,25.78
2023-05-23T13:29:11.783Z,25.07
2023-05-23T13:31:39.332Z,23.67
2023-05-23T13:34:06.936Z,25.52
2023-05-23T13:36:35.808Z,26.07
2023-05-23T13:39:06.996Z,26.11
2023-05-23T13:41:36.868Z,23.80
2023-05-23T13:44:04.174Z,25.39
2023-05-23T13:46:34.447Z,25.55
2023-05-23T13:49:02.980Z,24.88
2023-05-23T13:51:32.137Z,25.07
2023-05-23T13:53:59.467Z,24.32
2023-05-23T13:56:26.683Z,25.78
2023-05-23T13:58:58.306Z,25.20
2023-05-23T14:01:25.629Z,24.82
2023-05-23T14:03:53.508Z,23.69
2023-05-23T14:06:20.941Z,23.45
2023-05-23T14:08:58.065Z,24.03
2023-05-23T14:11:25.894Z,23.11
2023-05-23T14:13:59.205Z,24.45
2023-05-23T14:16:32.258Z,24.25
2023-05-23T14:19:02.578Z,23.97
2023-05-23T14:21:30.147Z,24.47
2023-05-23T14:23:57.331Z,23.84
2023-05-23T14:26:33.748Z,24.88
2023-05-23T14:29:04.027Z,25.26
2023-05-23T14:31:32.317Z,24.58
2023-05-23T14:34:00.065Z,24.17
2023-05-23T14:36:28.825Z,24.39
2023-05-23T14:38:56.329Z,24.02
2023-05-23T14:41:23.466Z,23.52
2023-05-23T14:43:53.659Z,23.60
2023-05-23T14:46:22.874Z,22.70
2023-05-23T14:48:53.651Z,22.80
2023-05-23T14:51:41.787Z,23.23
2023-05-23T14:54:09.485Z,23.17
2023-05-23T14:56:41.989Z,22.28
2023-05-23T14:59:11.803Z,23.30
2023-05-23T15:01:41.280Z,24.05
2023-05-23T15:04:11.804Z,24.02
2023-05-23T15:06:40.372Z,23.52
2023-05-23T15:09:09.358Z,23.19
2023-05-23T15:11:38.922Z,23.30
2023-05-23T15:14:06.662Z,23.89
2023-05-23T15:16:40.019Z,22.93
2023-05-23T15:19:07.433Z,22.90
2023-05-23T15:21:37.036Z,22.37
2023-05-23T15:24:06.056Z,22.18
2023-05-23T15:26:33.152Z,22.42
2023-05-23T15:29:00.359Z,21.35
2023-05-23T15:31:28.066Z,20.98
2023-05-23T15:33:56.562Z,21.51
2023-05-23T15:36:23.931Z,21.26
2023-05-23T15:38:52.617Z,20.96
2023-05-23T15:41:19.939Z,20.95
2023-05-23T15:43:51.933Z,21.53
2023-05-23T15:46:25.152Z,20.27
2023-05-23T15:49:07.515Z,20.73
2023-05-23T15:51:40.922Z,20.85
2023-05-23T15:54:40.368Z,21.02
2023-05-23T15:57:36.903Z,21.60
2023-05-23T16:00:04.915Z,21.07
2023-05-23T16:05:22.700Z,20.63
2023-05-23T16:07:53.471Z,19.58
2023-05-23T16:10:24.557Z,20.52
2023-05-23T16:12:51.883Z,20.38
2023-05-23T16:15:20.117Z,20.04
2023-05-23T16:17:49.945Z,20.64
2023-05-23T16:20:17.315Z,19.65
2023-05-23T16:22:54.071Z,19.71
2023-05-23T16:25:21.303Z,20.12
2023-05-23T16:27:48.425Z,19.77
2023-05-23T16:30:19.616Z,18.89
2023-05-23T16:32:47.073Z,19.92
2023-05-23T16:35:14.374Z,19.93
2023-05-23T16:37:52.673Z,19.20
2023-05-23T16:40:19.981Z,18.76
2023-05-23T16:42:50.137Z,19.59
2023-05-23T16:45:17.965Z,19.66
2023-05-23T16:47:52.506Z,18.52
2023-05-23T16:50:20.055Z,18.62
2023-05-23T16:52:47.185Z,18.15
2023-05-23T16:55:16.314Z,18.81
2023-05-23T16:57:43.848Z,18.98
2023-05-23T17:00:12.547Z,18.04
2023-05-23T17:02:40.036Z,18.57
2023-05-23T17:05:07.880Z,19.00
2023-05-23T17:07:35.022Z,18.77
2023-05-23T17:10:05.003Z,18.43
2023-05-23T17:12:32.875Z,17.33
2023-05-23T17:15:00.284Z,17.39
2023-05-23T17:17:27.537Z,17.50
2023-05-23T17:19:57.646Z,17.40
2023-05-23T17:22:24.809Z,18.05
2023-05-23T17:24:54.879Z,17.22
2023-05-23T17:27:24.344Z,16.95
2023-05-23T17:29:51.540Z,16.65
2023-05-23T17:32:20.025Z,16.83
2023-05-23T17:34:47.248Z,16.45
2023-05-23T17:37:18.177Z,16.77
2023-05-23T17:39:45.808Z,16.47
2023-05-23T17:42:13.208Z,16.75
2023-05-23T17:44:40.328Z,17.08
2023-05-23T17:47:07.864Z,17.08
2023-05-23T17:49:35.928Z,16.79
2023-05-23T17:52:05.783Z,17.42
2023-05-23T17:54:33.402Z,16.66
2023-05-23T17:57:04.864Z,16.52
2023-05-23T17:59:32.855Z,16.29
2023-05-23T18:02:00.867Z,16.54
2023-05-23T18:04:28.849Z,16.20
2023-05-23T18:06:55.979Z,16.50
2023-05-23T18:09:23.543Z,16.38
2023-05-23T18:11:51.256Z,16.95
2023-05-23T18:14:21.708Z,16.45
2023-05-23T18:16:49.518Z,16.82
2023-05-23T18:19:17.441Z,16.98
2023-05-23T18:21:44.604Z,16.79
2023-05-23T18:24:12.013Z,17.01
2023-05-23T18:26:42.447Z,16.41
2023-05-23T18:29:12.687Z,16.97
2023-05-23T18:31:40.586Z,17.09
2023-05-23T18:34:07.759Z,17.25
2023-05-23T18:36:35.175Z,17.16
2023-05-23T18:39:02.571Z,16.94
2023-05-23T18:43:58.361Z,16.78
2023-05-23T18:46:25.721Z,16.78
2023-05-23T18:48:53.348Z,17.31
2023-05-23T18:51:20.958Z,17.22
2023-05-23T18:53:48.152Z,17.44
2023-05-23T18:56:15.827Z,17.50
2023-05-23T18:58:45.341Z,17.49
2023-05-23T19:01:13.839Z,17.09
2023-05-23T19:03:41.328Z,17.67
2023-05-23T19:06:08.722Z,17.58
2023-05-23T19:08:36.132Z,17.93
2023-05-23T19:11:03.600Z,17.72
2023-05-23T19:13:30.867Z,16.74
2023-05-23T19:15:58.116Z,16.98
2023-05-23T19:18:25.451Z,17.08
2023-05-23T19:20:53.133Z,17.19
2023-05-23T19:23:20.996Z,17.27
2023-05-23T19:25:48.182Z,17.65
2023-05-23T19:28:15.480Z,17.94
2023-05-23T19:30:43.916Z,18.08
2023-05-23T19:33:11.482Z,17.84
2023-05-23T19:35:38.932Z,17.62
2023-05-23T19:38:06.034Z,18.15
2023-05-23T19:40:33.176Z,18.08
2023-05-23T19:43:00.324Z,17.02
2023-05-23T19:45:28.854Z,18.02
2023-05-23T19:47:58.131Z,18.10
2023-05-23T19:50:25.401Z,17.72
2023-05-23T19:52:52.566Z,17.49
2023-05-23T19:55:19.841Z,17.54
2023-05-23T19:57:47.012Z,17.91
2023-05-23T20:00:15.050Z,18.07
2023-05-23T20:02:42.772Z,17.39
2023-05-23T20:05:13.297Z,17.50
2023-05-23T20:07:40.467Z,17.62
2023-05-23T20:10:08.899Z,17.81
2023-05-23T20:12:36.165Z,17.97
2023-05-23T20:15:04.065Z,17.63
2023-05-23T20:17:31.421Z,17.66
2023-05-23T20:19:59.238Z,17.93
2023-05-23T20:22:27.869Z,17.68
2023-05-23T20:24:55.174Z,17.33
2023-05-23T20:27:22.345Z,18.05
2023-05-23T20:29:51.444Z,17.50
2023-05-23T20:32:18.558Z,18.26
2023-05-23T20:34:46.156Z,17.95
2023-05-23T20:37:13.934Z,18.00
2023-05-23T20:39:44.302Z,17.60
2023-05-23T20:42:11.523Z,17.73
2023-05-23T20:44:39.208Z,18.14
2023-05-23T20:47:12.886Z,16.97
2023-05-23T20:49:44.243Z,17.37
2023-05-23T20:52:11.399Z,17.50
2023-05-23T20:54:38.583Z,17.87
2023-05-23T20:57:05.973Z,17.68
2023-05-23T20:59:33.143Z,17.11
2023-05-23T21:02:00.662Z,17.17
2023-05-23T21:04:27.918Z,17.26
2023-05-23T21:06:55.119Z,17.16
2023-05-23T21:09:22.585Z,17.57
2023-05-23T21:11:49.829Z,17.73
2023-05-23T21:14:17.090Z,18.05
2023-05-23T21:16:44.259Z,17.37
2023-05-23T21:19:11.510Z,16.97
2023-05-23T21:21:38.981Z,16.97
2023-05-23T21:24:06.597Z,16.77
2023-05-23T21:26:33.843Z,17.11
2023-05-23T21:29:01.316Z,17.02
2023-05-23T21:31:40.403Z,17.19
2023-05-23T21:34:22.207Z,16.56
2023-05-23T21:36:51.806Z,17.12
2023-05-23T21:39:19.427Z,17.31
2023-05-23T21:41:47.018Z,16.84
2023-05-23T21:44:15.673Z,16.73
2023-05-23T21:46:42.907Z,17.14
2023-05-23T21:49:10.164Z,16.91
2023-05-23T21:51:37.905Z,16.79
2023-05-23T21:54:05.252Z,16.90
2023-05-23T21:56:32.491Z,16.75
2023-05-23T21:58:59.674Z,16.96
2023-05-23T22:01:27.398Z,16.67
2023-05-23T22:03:54.634Z,16.73
2023-05-23T22:06:22.009Z,16.46
2023-05-23T22:08:49.366Z,16.50
2023-05-23T22:11:16.782Z,16.78
2023-05-23T22:13:44.430Z,16.74
2023-05-23T22:16:11.671Z,16.62
2023-05-23T22:18:50.873Z,16.93
2023-05-23T22:21:20.134Z,16.27
2023-05-23T22:23:47.361Z,16.58
2023-05-23T22:26:14.530Z,16.70
2023-05-23T22:28:41.705Z,16.81
2023-05-23T22:31:11.171Z,16.46
2023-05-23T22:33:43.196Z,15.88
2023-05-23T22:36:10.836Z,15.76
2023-05-23T22:38:38.247Z,15.97
2023-05-23T22:41:05.993Z,16.22
2023-05-23T22:43:33.220Z,16.63
2023-05-23T22:46:00.420Z,16.83
2023-05-23T22:48:28.528Z,16.26
2023-05-23T22:50:56.999Z,16.51
2023-05-23T22:53:24.161Z,16.35
2023-05-23T22:55:51.420Z,16.89
2023-05-23T22:58:18.816Z,16.41
2023-05-23T23:00:46.089Z,16.13
2023-05-23T23:03:15.261Z,16.51
2023-05-23T23:05:42.712Z,16.34
2023-05-23T23:08:09.863Z,16.50
2023-05-23T23:10:37.013Z,16.66
2023-05-23T23:13:04.174Z,16.62
2023-05-23T23:15:33.943Z,16.15
2023-05-23T23:18:01.450Z,16.02
2023-05-23T23:20:28.955Z,16.25
2023-05-23T23:22:57.547Z,15.82
2023-05-23T23:25:24.866Z,16.24
2023-05-23T23:27:52.143Z,15.99
2023-05-23T23:30:19.259Z,15.85
2023-05-23T23:32:49.602Z,14.95
2023-05-23T23:35:16.813Z,15.63
2023-05-23T23:37:44.052Z,15.82
2023-05-23T23:40:12.230Z,15.17
2023-05-23T23:42:39.558Z,15.66
2023-05-23T23:45:07.486Z,15.34
2023-05-23T23:47:34.617Z,16.16
2023-05-23T23:50:01.782Z,15.74
2023-05-23T23:52:29.989Z,15.84
2023-05-23T23:54:57.127Z,15.50
2023-05-23T23:57:24.318Z,15.72
2023-05-23T23:59:51.554Z,15.01
